createdAt,value
2023-03-28T00:01:03.938Z,54.57
2023-03-28T00:03:35.804Z,54.56
2023-03-28T00:06:05.721Z,54.25
2023-03-28T00:08:33.154Z,54.35
2023-03-28T00:11:19.012Z,54.22
2023-03-28T00:14:00.613Z,54.23
2023-03-28T00:16:33.799Z,53.67
2023-03-28T00:19:04.299Z,54.65
2023-03-28T00:21:35.468Z,54.08
2023-03-28T00:24:05.936Z,53.18
2023-03-28T00:26:35.702Z,53.47
2023-03-28T00:29:06.853Z,53.51
2023-03-28T00:31:35.287Z,53.52
2023-03-28T00:34:02.973Z,53.16
2023-03-28T00:36:32.890Z,52.59
2023-03-28T00:39:06.899Z,52.13
2023-03-28T00:41:42.672Z,52.54
2023-03-28T00:44:44.239Z,52.76
2023-03-28T00:47:52.981Z,52.65
2023-03-28T00:50:28.674Z,53.31
2023-03-28T00:53:10.166Z,52.67
2023-03-28T00:55:43.855Z,52.48
2023-03-28T00:58:19.719Z,52.49
2023-03-28T01:00:47.035Z,52.67
2023-03-28T01:03:19.305Z,52.20
2023-03-28T01:05:48.013Z,51.84
2023-03-28T01:08:22.056Z,51.62
2023-03-28T01:10:50.240Z,51.53
2023-03-28T01:13:21.663Z,51.67
2023-03-28T01:15:52.332Z,51.78
2023-03-28T01:18:23.945Z,51.71
2023-03-28T01:21:06.291Z,51.78
2023-03-28T01:23:40.562Z,51.80
2023-03-28T01:26:28.730Z,51.81
2023-03-28T01:29:27.440Z,52.17
2023-03-28T01:32:34.080Z,52.27
2023-03-28T01:35:29.730Z,52.20
2023-03-28T01:38:23.471Z,52.25
2023-03-28T01:41:31.847Z,50.77
2023-03-28T01:44:24.311Z,50.70
2023-03-28T01:47:04.840Z,50.54
2023-03-28T01:49:44.105Z,51.28
2023-03-28T01:52:21.423Z,51.57
2023-03-28T01:55:14.693Z,52.28
2023-03-28T01:58:03.657Z,52.75
2023-03-28T02:00:50.266Z,52.96
2023-03-28T02:03:33.292Z,52.60
2023-03-28T02:06:15.096Z,52.85
2023-03-28T02:08:44.833Z,52.43
2023-03-28T02:11:36.196Z,53.08
2023-03-28T02:14:33.243Z,52.48
2023-03-28T02:17:29.090Z,52.45
2023-03-28T02:20:19.578Z,52.67
2023-03-28T02:23:13.001Z,53.09
2023-03-28T02:26:07.079Z,52.74
2023-03-28T02:29:04.107Z,52.49
2023-03-28T02:31:38.717Z,52.71
2023-03-28T02:34:05.965Z,53.14
2023-03-28T02:37:01.531Z,53.27
2023-03-28T02:39:38.083Z,53.88
2023-03-28T02:42:48.092Z,53.99
2023-03-28T02:45:52.790Z,54.28
2023-03-28T02:48:48.248Z,53.92
2023-03-28T02:51:30.219Z,54.66
2023-03-28T02:54:34.790Z,54.66
2023-03-28T02:57:51.966Z,55.26
2023-03-28T03:00:21.118Z,55.11
2023-03-28T03:02:54.160Z,55.12
2023-03-28T03:05:22.179Z,55.85
2023-03-28T03:07:51.514Z,56.94
2023-03-28T03:10:19.186Z,57.28
2023-03-28T03:12:48.029Z,56.78
2023-03-28T03:15:18.161Z,57.17
2023-03-28T03:17:45.726Z,58.08
2023-03-28T03:20:13.296Z,58.41
2023-03-28T03:22:40.460Z,58.66
2023-03-28T03:25:08.917Z,58.50
2023-03-28T03:28:08.210Z,58.50
2023-03-28T03:30:35.539Z,60.58
2023-03-28T03:33:20.930Z,62.23
2023-03-28T03:35:53.553Z,64.34
2023-03-28T03:38:21.399Z,65.87
2023-03-28T03:40:48.514Z,66.20
2023-03-28T03:43:16.199Z,65.69
2023-03-28T03:45:46.018Z,65.55
2023-03-28T03:48:13.350Z,66.21
2023-03-28T03:50:41.118Z,66.42
2023-03-28T03:53:14.712Z,66.58
2023-03-28T03:56:03.930Z,66.36
2023-03-28T03:58:50.505Z,65.76
2023-03-28T04:01:18.270Z,65.65
2023-03-28T04:03:48.191Z,65.07
2023-03-28T04:06:24.239Z,64.88
2023-03-28T04:08:52.251Z,64.76
2023-03-28T04:11:35.119Z,63.92
2023-03-28T04:14:02.644Z,63.95
2023-03-28T04:16:30.108Z,63.90
2023-03-28T04:19:13.868Z,63.91
2023-03-28T04:21:43.799Z,63.80
2023-03-28T04:24:15.480Z,63.18
2023-03-28T04:26:50.222Z,63.06
2023-03-28T04:29:25.126Z,62.87
2023-03-28T04:32:12.937Z,62.06
2023-03-28T04:35:01.212Z,61.85
2023-03-28T04:37:28.658Z,61.95
2023-03-28T04:40:03.584Z,61.96
2023-03-28T04:42:30.979Z,62.62
2023-03-28T04:45:09.738Z,62.26
2023-03-28T04:47:41.929Z,61.69
2023-03-28T04:50:16.757Z,61.66
2023-03-28T04:52:44.824Z,61.48
2023-03-28T04:55:14.842Z,61.06
2023-03-28T04:57:42.340Z,61.09
2023-03-28T05:00:17.261Z,60.95
2023-03-28T05:03:13.591Z,60.50
2023-03-28T05:05:55.992Z,60.07
2023-03-28T05:08:26.103Z,60.52
2023-03-28T05:10:55.310Z,60.17
2023-03-28T05:13:23.097Z,59.86
2023-03-28T05:16:13.290Z,59.65
2023-03-28T05:19:10.647Z,59.26
2023-03-28T05:21:57.922Z,59.27
2023-03-28T05:24:25.079Z,58.11
2023-03-28T05:26:53.178Z,57.99
2023-03-28T05:29:23.309Z,57.88
2023-03-28T05:31:51.729Z,57.12
2023-03-28T05:34:29.502Z,56.61
2023-03-28T05:36:57.980Z,56.40
2023-03-28T05:39:30.376Z,57.05
2023-03-28T05:42:02.085Z,56.48
2023-03-28T05:44:29.664Z,56.54
2023-03-28T05:47:17.481Z,56.00
2023-03-28T05:49:44.835Z,55.78
2023-03-28T05:52:11.988Z,56.11
2023-03-28T05:54:40.499Z,55.60
2023-03-28T05:57:19.748Z,55.50
2023-03-28T05:59:47.080Z,55.27
2023-03-28T06:02:23.121Z,54.43
2023-03-28T06:04:55.927Z,54.39
2023-03-28T06:07:35.213Z,54.08
2023-03-28T06:10:12.516Z,54.00
2023-03-28T06:12:41.916Z,53.34
2023-03-28T06:15:10.869Z,53.07
2023-03-28T06:17:42.415Z,53.13
2023-03-28T06:20:10.458Z,52.79
2023-03-28T06:22:38.857Z,52.38
2023-03-28T06:25:09.674Z,52.06
2023-03-28T06:27:37.076Z,52.45
2023-03-28T06:30:05.690Z,52.00
2023-03-28T06:32:41.185Z,51.86
2023-03-28T06:35:09.183Z,51.89
2023-03-28T06:37:36.241Z,51.62
2023-03-28T06:40:08.599Z,51.32
2023-03-28T06:42:36.127Z,50.86
2023-03-28T06:45:29.536Z,49.99
2023-03-28T06:48:04.595Z,49.72
2023-03-28T06:50:50.783Z,50.17
2023-03-28T06:53:20.671Z,50.66
2023-03-28T06:55:53.749Z,50.39
2023-03-28T06:58:23.043Z,49.25
2023-03-28T07:00:59.293Z,49.00
2023-03-28T07:03:50.722Z,48.68
2023-03-28T07:06:21.880Z,48.67
2023-03-28T07:08:49.166Z,48.67
2023-03-28T07:11:18.988Z,48.53
2023-03-28T07:13:49.604Z,48.08
2023-03-28T07:16:17.766Z,48.04
2023-03-28T07:18:44.887Z,47.49
2023-03-28T07:21:18.954Z,47.29
2023-03-28T07:23:46.328Z,47.83
2023-03-28T07:26:18.018Z,47.71
2023-03-28T07:28:46.518Z,47.93
2023-03-28T07:31:13.806Z,47.92
2023-03-28T07:33:41.272Z,47.25
2023-03-28T07:36:16.266Z,47.64
2023-03-28T07:38:49.217Z,47.37
2023-03-28T07:41:18.729Z,47.84
2023-03-28T07:43:46.053Z,47.93
2023-03-28T07:46:17.666Z,47.84
2023-03-28T07:48:46.594Z,47.74
2023-03-28T07:51:14.796Z,46.12
2023-03-28T07:53:42.752Z,46.86
2023-03-28T07:56:10.812Z,46.39
2023-03-28T07:59:04.629Z,46.51
2023-03-28T08:01:32.399Z,46.39
2023-03-28T08:04:03.954Z,45.98
2023-03-28T08:06:45.706Z,45.78
2023-03-28T08:09:16.108Z,46.48
2023-03-28T08:11:47.926Z,46.34
2023-03-28T08:14:18.803Z,45.96
2023-03-28T08:16:46.717Z,45.72
2023-03-28T08:19:14.435Z,44.29
2023-03-28T08:22:02.735Z,44.50
2023-03-28T08:24:36.333Z,43.99
2023-03-28T08:27:12.542Z,44.44
2023-03-28T08:29:41.123Z,44.11
2023-03-28T08:32:09.196Z,43.08
2023-03-28T08:34:37.337Z,42.74
2023-03-28T08:37:11.289Z,42.25
2023-03-28T08:39:41.583Z,42.44
2023-03-28T08:42:54.764Z,43.33
2023-03-28T08:45:40.571Z,42.89
2023-03-28T08:48:35.943Z,43.28
2023-03-28T08:51:38.151Z,42.52
2023-03-28T08:54:18.004Z,42.51
2023-03-28T08:56:55.541Z,41.33
2023-03-28T08:59:48.516Z,40.78
2023-03-28T09:02:22.722Z,39.70
2023-03-28T09:04:51.823Z,39.64
2023-03-28T09:07:44.557Z,40.59
2023-03-28T09:10:19.492Z,39.70
2023-03-28T09:13:21.854Z,39.64
2023-03-28T09:16:15.299Z,38.49
2023-03-28T09:19:37.110Z,38.19
2023-03-28T09:22:49.917Z,37.40
2023-03-28T09:25:24.098Z,35.63
2023-03-28T09:28:24.616Z,35.77
2023-03-28T09:30:54.143Z,35.05
2023-03-28T09:33:36.401Z,36.09
2023-03-28T09:36:20.337Z,36.39
2023-03-28T09:38:58.708Z,36.48
2023-03-28T09:41:38.071Z,35.79
2023-03-28T09:44:54.715Z,36.08
2023-03-28T09:47:51.812Z,35.27
2023-03-28T09:50:22.587Z,34.84
2023-03-28T09:52:58.089Z,34.67
2023-03-28T09:55:29.372Z,34.76
2023-03-28T09:58:04.507Z,34.49
2023-03-28T10:00:47.204Z,34.33
2023-03-28T10:03:32.957Z,33.71
2023-03-28T10:06:25.782Z,32.09
2023-03-28T10:08:53.560Z,33.55
2023-03-28T10:11:50.097Z,35.09
2023-03-28T10:14:36.343Z,36.07
2023-03-28T10:17:08.405Z,35.60
2023-03-28T10:19:45.568Z,34.14
2023-03-28T10:22:31.143Z,34.67
2023-03-28T10:24:58.871Z,35.26
2023-03-28T10:27:34.377Z,34.54
2023-03-28T10:30:17.551Z,33.49
2023-03-28T10:32:45.103Z,33.31
2023-03-28T10:35:27.857Z,32.30
2023-03-28T10:38:18.756Z,32.44
2023-03-28T10:41:26.161Z,32.59
2023-03-28T10:44:26.225Z,33.01
2023-03-28T10:47:12.074Z,33.90
2023-03-28T10:49:47.915Z,33.50
2023-03-28T10:52:48.197Z,33.73
2023-03-28T10:55:28.775Z,33.57
2023-03-28T10:58:34.887Z,32.45
2023-03-28T11:01:25.076Z,32.46
2023-03-28T11:04:23.592Z,32.38
2023-03-28T11:07:02.130Z,32.79
2023-03-28T11:10:08.496Z,31.61
2023-03-28T11:13:26.710Z,31.43
2023-03-28T11:16:21.069Z,31.02
2023-03-28T11:19:41.017Z,31.06
2023-03-28T11:22:52.315Z,31.60
2023-03-28T11:25:42.599Z,30.71
2023-03-28T11:28:56.671Z,31.36
2023-03-28T11:31:44.786Z,31.31
2023-03-28T11:34:33.570Z,30.98
2023-03-28T11:37:13.953Z,30.71
2023-03-28T11:39:56.791Z,30.06
2023-03-28T11:42:41.400Z,28.72
2023-03-28T11:45:52.170Z,27.09
2023-03-28T11:48:32.079Z,26.53
2023-03-28T11:51:27.736Z,25.95
2023-03-28T11:54:05.376Z,25.72
2023-03-28T11:57:03.202Z,24.27
2023-03-28T12:03:29.175Z,23.51
2023-03-28T12:06:43.990Z,24.49
2023-03-28T12:09:28.189Z,24.15
2023-03-28T12:12:19.432Z,23.67
2023-03-28T12:15:35.550Z,23.24
2023-03-28T12:18:44.177Z,22.43
2023-03-28T12:21:47.314Z,22.53
2023-03-28T12:24:40.305Z,25.01
2023-03-28T12:27:57.239Z,26.67
2023-03-28T12:30:40.837Z,23.35
2023-03-28T12:33:15.800Z,23.25
2023-03-28T12:36:17.858Z,24.14
2023-03-28T12:38:58.199Z,25.21
2023-03-28T12:41:42.559Z,24.13
2023-03-28T12:44:41.158Z,24.85
2023-03-28T12:47:46.912Z,24.67
2023-03-28T12:50:28.394Z,23.57
2023-03-28T12:52:58.159Z,22.43
2023-03-28T12:55:49.415Z,21.90
2023-03-28T12:58:36.110Z,21.70
2023-03-28T13:01:49.445Z,21.25
2023-03-28T13:05:20.889Z,21.99
2023-03-28T13:08:13.591Z,22.29
2023-03-28T13:11:09.174Z,23.02
2023-03-28T13:14:13.560Z,23.57
2023-03-28T13:17:19.601Z,24.36
2023-03-28T13:19:55.936Z,26.62
2023-03-28T13:22:44.360Z,28.93
2023-03-28T13:25:32.525Z,29.93
2023-03-28T13:28:12.305Z,30.01
2023-03-28T13:31:11.786Z,30.55
2023-03-28T13:33:47.421Z,31.07
2023-03-28T13:36:24.326Z,31.36
2023-03-28T13:39:26.074Z,29.79
2023-03-28T13:41:55.967Z,28.99
2023-03-28T13:44:42.117Z,28.99
2023-03-28T13:47:22.982Z,27.35
2023-03-28T13:50:14.108Z,25.91
2023-03-28T13:52:41.328Z,27.11
2023-03-28T13:55:37.331Z,27.60
2023-03-28T13:58:04.468Z,28.10
2023-03-28T14:00:32.135Z,28.94
2023-03-28T14:03:14.139Z,28.19
2023-03-28T14:05:46.424Z,28.75
2023-03-28T14:08:13.466Z,27.89
2023-03-28T14:10:43.986Z,25.50
2023-03-28T14:13:16.547Z,26.73
2023-03-28T14:15:45.586Z,27.41
2023-03-28T14:18:33.972Z,26.50
2023-03-28T14:21:01.317Z,25.65
2023-03-28T14:23:32.714Z,27.04
2023-03-28T14:26:16.145Z,27.85
2023-03-28T14:28:46.381Z,28.53
2023-03-28T14:31:34.981Z,27.44
2023-03-28T14:34:27.194Z,24.06
2023-03-28T14:37:18.587Z,22.46
2023-03-28T14:39:47.465Z,23.72
2023-03-28T14:42:20.054Z,23.91
2023-03-28T14:44:52.367Z,25.03
2023-03-28T14:47:33.363Z,24.07
2023-03-28T14:50:02.461Z,24.36
2023-03-28T14:52:41.212Z,25.23
2023-03-28T14:55:17.984Z,26.98
2023-03-28T14:57:48.120Z,28.01
2023-03-28T15:00:22.498Z,27.56
2023-03-28T15:02:52.124Z,24.76
2023-03-28T15:05:22.462Z,22.58
2023-03-28T15:08:03.928Z,21.63
2023-03-28T15:10:31.637Z,22.63
2023-03-28T15:13:13.866Z,25.04
2023-03-28T15:15:47.063Z,27.21
2023-03-28T15:18:19.208Z,28.29
2023-03-28T15:20:52.226Z,29.75
2023-03-28T15:23:51.112Z,29.66
2023-03-28T15:26:33.568Z,28.08
2023-03-28T15:29:01.050Z,26.77
2023-03-28T15:31:28.911Z,25.41
2023-03-28T15:33:58.050Z,24.91
2023-03-28T15:36:32.459Z,24.09
2023-03-28T15:39:03.409Z,24.72
2023-03-28T15:41:39.664Z,25.42
2023-03-28T15:44:30.013Z,25.66
2023-03-28T15:47:10.894Z,25.73
2023-03-28T15:49:39.052Z,27.44
2023-03-28T15:52:16.590Z,29.24
2023-03-28T15:54:49.803Z,31.11
2023-03-28T15:57:19.998Z,31.19
2023-03-28T15:59:51.249Z,31.17
2023-03-28T16:02:24.171Z,31.83
2023-03-28T16:05:09.378Z,32.61
2023-03-28T16:07:50.778Z,33.10
2023-03-28T16:10:21.846Z,34.02
2023-03-28T16:13:14.331Z,35.99
2023-03-28T16:16:00.748Z,36.28
2023-03-28T16:18:42.425Z,36.64
2023-03-28T16:21:11.545Z,37.84
2023-03-28T16:23:38.750Z,38.09
2023-03-28T16:26:06.987Z,38.12
2023-03-28T16:28:34.566Z,38.38
2023-03-28T16:31:01.972Z,38.73
2023-03-28T16:33:29.290Z,38.96
2023-03-28T16:35:56.572Z,38.68
2023-03-28T16:38:24.372Z,39.05
2023-03-28T16:40:51.616Z,39.11
2023-03-28T16:43:18.816Z,38.65
2023-03-28T16:45:48.661Z,38.85
2023-03-28T16:48:16.353Z,38.93
2023-03-28T16:50:54.012Z,39.75
2023-03-28T16:53:21.705Z,39.77
2023-03-28T16:55:49.162Z,39.83
2023-03-28T16:58:18.812Z,40.38
2023-03-28T17:00:48.250Z,40.30
2023-03-28T17:03:18.214Z,40.10
2023-03-28T17:05:45.551Z,40.33
2023-03-28T17:08:13.108Z,40.86
2023-03-28T17:10:43.249Z,40.88
2023-03-28T17:13:11.053Z,41.18
2023-03-28T17:15:38.163Z,41.19
2023-03-28T17:18:08.632Z,41.58
2023-03-28T17:20:35.952Z,41.75
2023-03-28T17:23:04.258Z,42.08
2023-03-28T17:25:36.804Z,42.16
2023-03-28T17:28:08.997Z,41.79
2023-03-28T17:30:37.333Z,41.95
2023-03-28T17:33:04.921Z,42.24
2023-03-28T17:35:32.362Z,42.26
2023-03-28T17:37:59.428Z,42.33
2023-03-28T17:40:26.532Z,42.65
2023-03-28T17:42:53.700Z,42.76
2023-03-28T17:45:21.078Z,42.90
2023-03-28T17:47:48.690Z,43.10
2023-03-28T17:50:15.926Z,43.39
2023-03-28T17:52:43.218Z,43.36
2023-03-28T17:55:10.430Z,43.39
2023-03-28T17:57:37.652Z,43.43
2023-03-28T18:00:06.931Z,43.73
2023-03-28T18:02:42.399Z,43.84
2023-03-28T18:05:18.717Z,44.00
2023-03-28T18:07:52.064Z,44.20
2023-03-28T18:10:21.184Z,44.48
2023-03-28T18:12:48.335Z,44.52
2023-03-28T18:15:15.663Z,45.08
2023-03-28T18:17:44.631Z,45.46
2023-03-28T18:20:12.806Z,45.74
2023-03-28T18:22:42.320Z,46.15
2023-03-28T18:25:09.889Z,46.26
2023-03-28T18:27:37.184Z,46.34
2023-03-28T18:30:08.331Z,46.29
2023-03-28T18:32:36.741Z,46.25
2023-03-28T18:35:07.240Z,46.39
2023-03-28T18:37:35.094Z,46.54
2023-03-28T18:40:05.109Z,46.82
2023-03-28T18:42:32.361Z,46.63
2023-03-28T18:44:59.486Z,46.66
2023-03-28T18:47:26.617Z,46.68
2023-03-28T18:49:53.723Z,46.68
2023-03-28T18:52:21.889Z,46.92
2023-03-28T18:54:49.294Z,46.88
2023-03-28T18:57:17.003Z,46.77
2023-03-28T18:59:44.142Z,46.81
2023-03-28T19:02:15.336Z,46.72
2023-03-28T19:04:42.489Z,46.85
2023-03-28T19:07:10.058Z,47.19
2023-03-28T19:09:38.248Z,47.21
2023-03-28T19:12:05.445Z,47.25
2023-03-28T19:14:33.077Z,47.34
2023-03-28T19:17:00.167Z,47.56
2023-03-28T19:19:27.644Z,47.77
2023-03-28T19:21:57.803Z,47.84
2023-03-28T19:24:25.051Z,47.97
2023-03-28T19:26:53.330Z,48.06
2023-03-28T19:29:20.476Z,48.26
2023-03-28T19:31:47.571Z,48.58
2023-03-28T19:34:19.949Z,48.47
2023-03-28T19:36:47.742Z,48.68
2023-03-28T19:39:15.162Z,48.94
2023-03-28T19:41:42.286Z,49.11
2023-03-28T19:44:09.467Z,49.14
2023-03-28T19:46:38.793Z,49.58
2023-03-28T19:49:06.675Z,49.92
2023-03-28T19:51:36.558Z,50.05
2023-03-28T19:54:04.494Z,50.27
2023-03-28T19:56:31.701Z,50.35
2023-03-28T19:58:58.902Z,50.22
2023-03-28T20:01:26.065Z,50.06
2023-03-28T20:03:53.570Z,49.99
2023-03-28T20:06:22.460Z,49.84
2023-03-28T20:08:50.757Z,49.84
2023-03-28T20:11:18.341Z,49.56
2023-03-28T20:13:45.567Z,49.47
2023-03-28T20:16:13.796Z,49.81
2023-03-28T20:18:41.469Z,49.58
2023-03-28T20:21:12.380Z,49.80
2023-03-28T20:23:40.192Z,49.87
2023-03-28T20:26:18.318Z,49.54
2023-03-28T20:28:49.558Z,49.45
2023-03-28T20:31:18.319Z,49.22
2023-03-28T20:33:46.212Z,49.23
2023-03-28T20:36:13.588Z,49.06
2023-03-28T20:38:41.008Z,49.00
2023-03-28T20:41:16.942Z,48.82
2023-03-28T20:43:47.524Z,48.76
2023-03-28T20:46:18.665Z,48.73
2023-03-28T20:48:52.364Z,48.90
2023-03-28T20:51:22.793Z,48.95
2023-03-28T20:53:54.593Z,48.93
2023-03-28T20:56:22.594Z,49.20
2023-03-28T20:58:50.939Z,49.00
2023-03-28T21:01:18.776Z,48.99
2023-03-28T21:03:49.258Z,49.25
2023-03-28T21:06:29.828Z,49.06
2023-03-28T21:09:00.573Z,49.31
2023-03-28T21:11:37.794Z,49.81
2023-03-28T21:14:07.352Z,50.05
2023-03-28T21:16:34.830Z,50.30
2023-03-28T21:19:02.803Z,50.21
2023-03-28T21:21:33.096Z,50.30
2023-03-28T21:24:00.976Z,50.22
2023-03-28T21:26:29.279Z,50.37
2023-03-28T21:28:56.545Z,51.08
2023-03-28T21:31:27.299Z,51.08
2023-03-28T21:33:59.641Z,51.46
2023-03-28T21:36:28.069Z,51.60
2023-03-28T21:38:56.526Z,51.69
2023-03-28T21:41:24.167Z,51.75
2023-03-28T21:43:53.645Z,52.17
2023-03-28T21:46:22.249Z,52.26
2023-03-28T21:48:50.027Z,52.13
2023-03-28T21:51:17.961Z,52.18
2023-03-28T21:53:45.981Z,52.00
2023-03-28T21:56:14.576Z,52.13
2023-03-28T21:58:42.562Z,52.14
2023-03-28T22:01:14.318Z,51.96
2023-03-28T22:03:41.724Z,52.04
2023-03-28T22:06:09.798Z,52.42
2023-03-28T22:08:37.017Z,52.64
2023-03-28T22:11:13.651Z,52.46
2023-03-28T22:13:42.022Z,52.63
2023-03-28T22:16:09.804Z,52.90
2023-03-28T22:18:36.952Z,52.69
2023-03-28T22:21:04.505Z,52.51
2023-03-28T22:23:31.754Z,52.16
2023-03-28T22:25:58.922Z,52.07
2023-03-28T22:28:26.145Z,51.90
2023-03-28T22:30:56.219Z,51.44
2023-03-28T22:33:24.193Z,51.56
2023-03-28T22:35:51.742Z,51.73
2023-03-28T22:38:21.937Z,51.82
2023-03-28T22:40:49.549Z,51.48
2023-03-28T22:43:17.035Z,51.40
2023-03-28T22:45:44.194Z,50.86
2023-03-28T22:48:14.608Z,50.82
2023-03-28T22:50:46.338Z,50.61
2023-03-28T22:53:14.915Z,50.89
2023-03-28T22:55:43.707Z,50.70
2023-03-28T22:58:11.825Z,50.93
2023-03-28T23:00:39.227Z,51.09
2023-03-28T23:03:08.120Z,51.13
2023-03-28T23:05:35.966Z,51.14
2023-03-28T23:08:04.026Z,51.03
2023-03-28T23:10:32.011Z,51.00
2023-03-28T23:12:59.921Z,51.01
2023-03-28T23:15:27.719Z,50.99
2023-03-28T23:17:55.110Z,50.38
2023-03-28T23:20:22.774Z,50.55
2023-03-28T23:22:50.023Z,50.23
2023-03-28T23:25:18.900Z,50.35
2023-03-28T23:27:46.736Z,50.46
2023-03-28T23:30:15.873Z,50.38
2023-03-28T23:32:43.518Z,49.96
2023-03-28T23:35:11.739Z,49.89
2023-03-28T23:37:39.260Z,49.90
2023-03-28T23:40:14.110Z,49.92
2023-03-28T23:42:44.605Z,49.73
2023-03-28T23:45:14.829Z,49.71
2023-03-28T23:47:43.674Z,49.56
2023-03-28T23:50:11.414Z,49.17
2023-03-28T23:52:38.465Z,49.10
2023-03-28T23:55:07.914Z,49.01
2023-03-28T23:57:35.179Z,49.34
